createdAt,value
2022-10-19T00:02:17.500Z,8.49
2022-10-19T00:04:44.596Z,8.52
2022-10-19T00:07:10.848Z,8.41
2022-10-19T00:09:37.103Z,8.45
2022-10-19T00:12:03.735Z,8.42
2022-10-19T00:14:29.971Z,8.42
2022-10-19T00:16:58.061Z,8.47
2022-10-19T00:19:27.289Z,8.48
2022-10-19T00:21:53.711Z,8.53
2022-10-19T00:24:20.510Z,8.38
2022-10-19T00:26:47.286Z,8.50
2022-10-19T00:29:14.295Z,8.41
2022-10-19T00:31:41.186Z,8.51
2022-10-19T00:34:07.758Z,8.52
2022-10-19T00:36:37.742Z,8.41
2022-10-19T00:39:06.093Z,8.51
2022-10-19T00:41:34.148Z,8.47
2022-10-19T00:44:01.778Z,8.47
2022-10-19T00:46:30.523Z,8.46
2022-10-19T00:49:10.899Z,8.55
2022-10-19T00:51:40.088Z,8.54
2022-10-19T00:54:07.059Z,8.53
2022-10-19T00:56:33.794Z,8.53
2022-10-19T00:59:03.527Z,8.53
2022-10-19T01:01:31.394Z,8.37
2022-10-19T01:03:57.752Z,8.46
2022-10-19T01:06:24.948Z,8.42
2022-10-19T01:08:51.472Z,8.38
2022-10-19T01:11:43.462Z,8.32
2022-10-19T01:14:31.407Z,8.28
2022-10-19T01:17:19.223Z,8.24
2022-10-19T01:20:08.148Z,8.18
2022-10-19T01:22:51.655Z,8.27
2022-10-19T01:26:00.207Z,8.31
2022-10-19T01:28:46.027Z,8.44
2022-10-19T01:31:38.979Z,8.53
2022-10-19T01:34:05.080Z,8.64
2022-10-19T01:36:34.479Z,8.72
2022-10-19T01:39:12.214Z,8.76
2022-10-19T01:42:00.399Z,8.81
2022-10-19T01:44:40.140Z,8.77
2022-10-19T01:47:10.403Z,8.70
2022-10-19T01:49:57.214Z,8.54
2022-10-19T01:52:25.575Z,8.54
2022-10-19T01:54:57.444Z,8.48
2022-10-19T01:57:33.191Z,8.41
2022-10-19T02:00:05.099Z,8.34
2022-10-19T02:02:40.530Z,8.31
2022-10-19T02:05:07.870Z,8.16
2022-10-19T02:07:34.904Z,8.12
2022-10-19T02:10:01.292Z,8.14
2022-10-19T02:12:28.988Z,8.12
2022-10-19T02:14:58.424Z,8.12
2022-10-19T02:17:29.002Z,8.10
2022-10-19T02:19:55.700Z,8.09
2022-10-19T02:22:22.092Z,8.07
2022-10-19T02:24:48.330Z,8.06
2022-10-19T02:27:14.897Z,7.92
2022-10-19T02:29:41.340Z,8.01
2022-10-19T02:32:08.247Z,8.07
2022-10-19T02:34:35.522Z,8.28
2022-10-19T02:37:01.941Z,8.32
2022-10-19T02:39:28.361Z,8.38
2022-10-19T02:42:04.454Z,8.33
2022-10-19T02:44:47.214Z,8.31
2022-10-19T02:47:18.339Z,8.25
2022-10-19T02:49:44.920Z,8.19
2022-10-19T02:52:12.840Z,8.14
2022-10-19T02:54:40.473Z,8.18
2022-10-19T02:57:18.570Z,8.17
2022-10-19T02:59:45.251Z,8.20
2022-10-19T03:02:11.935Z,8.26
2022-10-19T03:04:38.275Z,8.42
2022-10-19T03:07:04.829Z,8.50
2022-10-19T03:09:31.066Z,8.47
2022-10-19T03:11:57.331Z,8.55
2022-10-19T03:14:23.928Z,8.60
2022-10-19T03:16:50.180Z,8.54
2022-10-19T03:19:16.439Z,8.63
2022-10-19T03:21:42.974Z,8.64
2022-10-19T03:24:09.233Z,8.60
2022-10-19T03:26:35.540Z,8.74
2022-10-19T03:29:02.094Z,8.74
2022-10-19T03:31:28.327Z,8.78
2022-10-19T03:33:54.577Z,8.82
2022-10-19T03:36:29.424Z,8.84
2022-10-19T03:38:57.729Z,8.90
2022-10-19T03:41:26.509Z,8.87
2022-10-19T03:43:52.936Z,8.89
2022-10-19T03:46:19.901Z,8.85
2022-10-19T03:48:46.932Z,8.86
2022-10-19T03:51:15.631Z,8.88
2022-10-19T03:53:42.351Z,8.92
2022-10-19T03:56:12.993Z,8.90
2022-10-19T03:58:40.258Z,8.99
2022-10-19T04:01:09.140Z,8.90
2022-10-19T04:06:15.833Z,9.02
2022-10-19T04:08:45.279Z,9.14
2022-10-19T04:11:14.147Z,9.20
2022-10-19T04:13:40.734Z,9.24
2022-10-19T04:16:07.790Z,9.29
2022-10-19T04:18:34.203Z,9.32
2022-10-19T04:21:03.753Z,9.38
2022-10-19T04:23:32.481Z,9.43
2022-10-19T04:26:07.465Z,9.45
2022-10-19T04:28:34.684Z,9.36
2022-10-19T04:31:05.317Z,9.46
2022-10-19T04:33:32.499Z,9.53
2022-10-19T04:36:03.607Z,9.55
2022-10-19T04:38:30.458Z,9.51
2022-10-19T04:41:01.490Z,9.53
2022-10-19T04:43:28.013Z,9.64
2022-10-19T04:45:54.274Z,9.66
2022-10-19T04:48:20.509Z,9.69
2022-10-19T04:50:47.048Z,9.62
2022-10-19T04:53:19.336Z,9.72
2022-10-19T04:55:45.624Z,9.76
2022-10-19T04:58:12.191Z,9.81
2022-10-19T05:00:38.905Z,9.80
2022-10-19T05:03:05.255Z,9.78
2022-10-19T05:05:33.002Z,9.81
2022-10-19T05:07:59.215Z,9.83
2022-10-19T05:10:25.447Z,9.86
2022-10-19T05:12:52.176Z,9.88
2022-10-19T05:15:18.409Z,9.86
2022-10-19T05:17:44.627Z,9.79
2022-10-19T05:20:11.487Z,9.93
2022-10-19T05:22:40.879Z,9.95
2022-10-19T05:25:07.628Z,9.93
2022-10-19T05:27:34.529Z,9.97
2022-10-19T05:30:00.896Z,10.05
2022-10-19T05:32:28.140Z,10.08
2022-10-19T05:34:54.661Z,10.08
2022-10-19T05:37:21.683Z,10.10
2022-10-19T05:39:47.942Z,10.12
2022-10-19T05:42:14.456Z,10.10
2022-10-19T05:44:40.878Z,10.14
2022-10-19T05:47:07.341Z,10.14
2022-10-19T05:49:33.868Z,10.10
2022-10-19T05:52:00.258Z,10.19
2022-10-19T05:54:28.519Z,9.93
2022-10-19T05:56:55.671Z,10.21
2022-10-19T05:59:22.239Z,10.16
2022-10-19T06:01:49.233Z,10.25
2022-10-19T06:06:43.586Z,10.11
2022-10-19T06:09:10.475Z,10.26
2022-10-19T06:11:39.353Z,10.28
2022-10-19T06:14:08.651Z,10.27
2022-10-19T06:16:35.602Z,10.29
2022-10-19T06:19:02.185Z,10.18
2022-10-19T06:21:30.148Z,10.29
2022-10-19T06:23:58.257Z,10.29
2022-10-19T06:26:25.545Z,10.28
2022-10-19T06:28:52.174Z,10.29
2022-10-19T06:31:18.407Z,10.25
2022-10-19T06:33:48.626Z,10.15
2022-10-19T06:36:21.284Z,10.23
2022-10-19T06:38:48.514Z,10.26
2022-10-19T06:41:14.768Z,10.29
2022-10-19T06:43:43.057Z,10.34
2022-10-19T06:46:12.070Z,10.31
2022-10-19T06:48:38.695Z,10.42
2022-10-19T06:51:07.469Z,10.40
2022-10-19T06:53:35.504Z,10.56
2022-10-19T06:56:03.503Z,10.64
2022-10-19T06:58:30.989Z,10.72
2022-10-19T07:01:01.198Z,10.83
2022-10-19T07:03:28.820Z,10.94
2022-10-19T07:05:56.456Z,11.29
2022-10-19T07:08:23.759Z,11.41
2022-10-19T07:10:54.283Z,11.50
2022-10-19T07:13:21.599Z,11.57
2022-10-19T07:15:48.612Z,11.60
2022-10-19T07:18:15.300Z,11.72
2022-10-19T07:20:41.825Z,11.76
2022-10-19T07:23:08.452Z,11.83
2022-10-19T07:25:36.239Z,11.71
2022-10-19T07:28:02.488Z,11.90
2022-10-19T07:30:29.026Z,11.97
2022-10-19T07:32:55.304Z,11.98
2022-10-19T07:35:21.535Z,12.08
2022-10-19T07:37:48.101Z,12.24
2022-10-19T07:40:14.368Z,12.28
2022-10-19T07:42:40.640Z,12.48
2022-10-19T07:45:07.517Z,12.60
2022-10-19T07:47:34.545Z,12.76
2022-10-19T07:50:00.982Z,12.91
2022-10-19T07:52:28.078Z,13.11
2022-10-19T07:54:56.283Z,13.29
2022-10-19T07:57:22.579Z,13.55
2022-10-19T07:59:49.087Z,13.76
2022-10-19T08:02:17.225Z,13.98
2022-10-19T08:05:02.781Z,14.36
2022-10-19T08:07:33.476Z,14.60
2022-10-19T08:10:00.021Z,14.89
2022-10-19T08:12:26.426Z,15.01
2022-10-19T08:14:53.954Z,15.40
2022-10-19T08:17:20.578Z,16.43
2022-10-19T08:19:47.113Z,16.55
2022-10-19T08:22:13.611Z,16.44
2022-10-19T08:24:40.511Z,17.57
2022-10-19T08:27:06.849Z,16.65
2022-10-19T08:29:33.555Z,16.64
2022-10-19T08:32:00.421Z,16.53
2022-10-19T08:34:29.003Z,16.65
2022-10-19T08:36:55.321Z,16.74
2022-10-19T08:39:21.968Z,16.48
2022-10-19T08:42:19.640Z,16.54
2022-10-19T08:45:09.453Z,16.50
2022-10-19T08:48:07.813Z,18.16
2022-10-19T08:50:40.025Z,18.97
2022-10-19T08:53:24.230Z,18.66
2022-10-19T08:55:59.812Z,19.63
2022-10-19T08:58:41.942Z,20.00
2022-10-19T09:01:46.876Z,21.61
2022-10-19T09:04:42.122Z,23.05
2022-10-19T09:07:29.297Z,24.28
2022-10-19T09:10:05.444Z,24.63
2022-10-19T09:12:38.112Z,24.40
2022-10-19T09:15:08.029Z,24.37
2022-10-19T09:17:34.960Z,25.15
2022-10-19T09:20:17.615Z,24.34
2022-10-19T09:22:44.706Z,25.18
2022-10-19T09:25:21.020Z,26.11
2022-10-19T09:27:49.540Z,26.37
2022-10-19T09:30:19.302Z,26.76
2022-10-19T09:32:46.230Z,26.86
2022-10-19T09:35:32.675Z,26.76
2022-10-19T09:37:59.558Z,25.90
2022-10-19T09:40:28.883Z,25.80
2022-10-19T09:42:59.351Z,25.33
2022-10-19T09:45:49.851Z,23.88
2022-10-19T09:48:44.716Z,22.70
2022-10-19T09:51:14.296Z,21.62
2022-10-19T09:53:55.698Z,21.75
2022-10-19T09:56:25.007Z,23.52
2022-10-19T09:58:57.228Z,23.47
2022-10-19T10:01:40.179Z,25.03
2022-10-19T10:04:18.745Z,24.47
2022-10-19T10:06:49.466Z,26.08
2022-10-19T10:09:22.644Z,26.35
2022-10-19T10:11:50.924Z,27.05
2022-10-19T10:14:25.048Z,24.56
2022-10-19T10:17:14.639Z,23.38
2022-10-19T10:20:10.853Z,24.12
2022-10-19T10:22:37.746Z,25.03
2022-10-19T10:25:15.996Z,22.69
2022-10-19T10:27:42.233Z,21.50
2022-10-19T10:30:16.145Z,23.33
2022-10-19T10:32:51.452Z,22.69
2022-10-19T10:35:21.179Z,21.89
2022-10-19T10:37:48.164Z,20.89
2022-10-19T10:40:28.242Z,20.58
2022-10-19T10:42:56.997Z,20.03
2022-10-19T10:45:28.891Z,19.65
2022-10-19T10:47:55.509Z,19.22
2022-10-19T10:50:31.537Z,18.54
2022-10-19T10:53:01.015Z,18.52
2022-10-19T10:55:27.589Z,18.78
2022-10-19T10:58:11.149Z,19.21
2022-10-19T11:00:40.266Z,19.06
2022-10-19T11:03:36.130Z,18.62
2022-10-19T11:06:05.463Z,18.64
2022-10-19T11:08:41.395Z,18.56
2022-10-19T11:11:20.971Z,18.52
2022-10-19T11:14:18.734Z,18.64
2022-10-19T11:16:47.024Z,18.47
2022-10-19T11:19:22.885Z,18.32
2022-10-19T11:22:08.341Z,18.40
2022-10-19T11:25:05.662Z,18.07
2022-10-19T11:28:16.535Z,17.81
2022-10-19T11:30:55.809Z,17.40
2022-10-19T11:36:51.175Z,17.20
2022-10-19T11:39:27.623Z,17.13
2022-10-19T11:42:05.663Z,17.20
2022-10-19T11:44:35.038Z,17.31
2022-10-19T11:47:07.304Z,17.45
2022-10-19T11:49:39.707Z,17.74
2022-10-19T11:52:19.939Z,17.91
2022-10-19T11:55:24.012Z,18.03
2022-10-19T11:58:11.320Z,17.98
2022-10-19T12:00:44.983Z,17.77
2022-10-19T12:03:43.694Z,17.71
2022-10-19T12:06:44.580Z,17.84
2022-10-19T12:09:18.575Z,17.52
2022-10-19T12:12:18.507Z,17.23
2022-10-19T12:14:46.564Z,17.27
2022-10-19T12:17:17.188Z,17.13
2022-10-19T12:19:48.034Z,17.03
2022-10-19T12:22:22.467Z,17.19
2022-10-19T12:24:50.820Z,17.27
2022-10-19T12:27:21.704Z,17.51
2022-10-19T12:29:48.677Z,17.41
2022-10-19T12:32:17.153Z,17.21
2022-10-19T12:34:52.352Z,16.74
2022-10-19T12:37:50.195Z,16.66
2022-10-19T12:40:31.191Z,16.49
2022-10-19T12:43:09.703Z,16.16
2022-10-19T12:45:54.864Z,16.05
2022-10-19T12:48:22.089Z,15.91
2022-10-19T12:50:48.531Z,16.15
2022-10-19T12:56:02.178Z,16.38
2022-10-19T12:58:35.110Z,16.40
2022-10-19T13:01:03.909Z,16.31
2022-10-19T13:03:38.288Z,16.17
2022-10-19T13:06:18.752Z,15.94
2022-10-19T13:08:55.908Z,15.83
2022-10-19T13:11:23.027Z,15.73
2022-10-19T13:14:00.044Z,15.65
2022-10-19T13:16:29.571Z,15.58
2022-10-19T13:19:14.212Z,15.72
2022-10-19T13:22:22.720Z,15.85
2022-10-19T13:25:17.204Z,16.01
2022-10-19T13:27:44.618Z,16.08
2022-10-19T13:30:39.323Z,15.92
2022-10-19T13:33:24.807Z,16.00
2022-10-19T13:36:09.850Z,16.00
2022-10-19T13:38:39.285Z,15.81
2022-10-19T13:41:08.924Z,15.80
2022-10-19T13:43:53.661Z,15.77
2022-10-19T13:46:23.229Z,15.68
2022-10-19T13:49:04.920Z,15.60
2022-10-19T13:52:03.234Z,15.59
2022-10-19T13:54:49.451Z,15.51
2022-10-19T13:57:43.666Z,15.53
2022-10-19T14:00:19.735Z,15.47
2022-10-19T14:03:23.915Z,15.43
2022-10-19T14:06:15.092Z,15.38
2022-10-19T14:09:24.874Z,15.35
2022-10-19T14:11:52.939Z,15.31
2022-10-19T14:14:22.176Z,15.23
2022-10-19T14:17:03.059Z,15.14
2022-10-19T14:19:42.234Z,15.04
2022-10-19T14:22:23.155Z,15.02
2022-10-19T14:24:49.698Z,14.99
2022-10-19T14:27:23.013Z,14.94
2022-10-19T14:29:51.417Z,14.84
2022-10-19T14:32:19.251Z,14.72
2022-10-19T14:34:47.526Z,14.63
2022-10-19T14:37:25.082Z,14.56
2022-10-19T14:40:03.813Z,14.51
2022-10-19T14:42:45.076Z,14.45
2022-10-19T14:45:21.041Z,14.38
2022-10-19T14:48:07.474Z,14.33
2022-10-19T14:50:41.650Z,14.36
2022-10-19T14:53:35.027Z,14.30
2022-10-19T14:56:06.729Z,14.26
2022-10-19T14:58:39.347Z,14.17
2022-10-19T15:01:06.044Z,14.15
2022-10-19T15:03:33.245Z,14.10
2022-10-19T15:06:03.047Z,14.04
2022-10-19T15:08:37.806Z,14.14
2022-10-19T15:11:06.212Z,14.17
2022-10-19T15:13:35.311Z,14.13
2022-10-19T15:16:01.665Z,14.14
2022-10-19T15:18:49.293Z,14.15
2022-10-19T15:21:20.000Z,14.07
2022-10-19T15:23:50.931Z,14.08
2022-10-19T15:26:19.523Z,14.06
2022-10-19T15:28:45.972Z,14.04
2022-10-19T15:31:15.577Z,14.10
2022-10-19T15:33:48.113Z,14.09
2022-10-19T15:36:17.517Z,14.06
2022-10-19T15:38:45.679Z,13.94
2022-10-19T15:41:17.707Z,13.94
2022-10-19T15:43:47.562Z,13.95
2022-10-19T15:46:13.855Z,13.93
2022-10-19T15:48:55.392Z,13.85
2022-10-19T15:51:25.204Z,13.85
2022-10-19T15:54:05.181Z,13.85
2022-10-19T15:56:34.841Z,13.74
2022-10-19T15:59:03.145Z,13.74
2022-10-19T16:01:32.388Z,13.42
2022-10-19T16:03:59.639Z,13.64
2022-10-19T16:06:28.144Z,13.48
2022-10-19T16:08:54.544Z,13.50
2022-10-19T16:11:23.075Z,13.50
2022-10-19T16:13:49.326Z,13.43
2022-10-19T16:16:29.918Z,13.35
2022-10-19T16:18:56.847Z,13.38
2022-10-19T16:21:28.800Z,13.33
2022-10-19T16:23:55.107Z,13.31
2022-10-19T16:26:22.104Z,13.16
2022-10-19T16:28:48.771Z,13.28
2022-10-19T16:31:15.949Z,13.25
2022-10-19T16:33:42.477Z,13.24
2022-10-19T16:36:09.216Z,13.11
2022-10-19T16:38:35.761Z,13.14
2022-10-19T16:41:08.316Z,13.10
2022-10-19T16:43:35.497Z,13.07
2022-10-19T16:46:02.648Z,13.03
2022-10-19T16:48:28.926Z,13.00
2022-10-19T16:51:07.400Z,12.97
2022-10-19T16:53:34.769Z,12.96
2022-10-19T16:56:09.823Z,12.87
2022-10-19T16:58:37.237Z,12.96
2022-10-19T17:01:18.048Z,12.91
2022-10-19T17:03:45.895Z,12.87
2022-10-19T17:06:12.743Z,12.76
2022-10-19T17:09:14.243Z,12.72
2022-10-19T17:11:32.051Z,12.75
2022-10-19T17:14:00.575Z,12.74
2022-10-19T17:16:28.813Z,12.71
2022-10-19T17:18:56.803Z,12.68
2022-10-19T17:21:25.974Z,12.66
2022-10-19T17:23:57.979Z,12.64
2022-10-19T17:26:32.256Z,12.62
2022-10-19T17:28:59.391Z,12.61
2022-10-19T17:31:26.388Z,12.47
2022-10-19T17:33:53.233Z,12.55
2022-10-19T17:36:28.513Z,12.52
2022-10-19T17:39:00.588Z,12.47
2022-10-19T17:41:28.216Z,12.46
2022-10-19T17:43:55.177Z,12.45
2022-10-19T17:46:23.682Z,12.36
2022-10-19T17:48:50.449Z,12.41
2022-10-19T17:51:27.113Z,12.34
2022-10-19T17:53:55.856Z,12.38
2022-10-19T17:56:22.275Z,12.25
2022-10-19T17:58:49.204Z,12.30
2022-10-19T18:01:17.262Z,12.26
2022-10-19T18:03:44.039Z,12.09
2022-10-19T18:06:19.548Z,12.02
2022-10-19T18:08:51.639Z,11.95
2022-10-19T18:11:23.445Z,12.01
2022-10-19T18:13:51.286Z,11.93
2022-10-19T18:16:26.552Z,11.84
2022-10-19T18:18:55.933Z,11.78
2022-10-19T18:21:25.325Z,11.73
2022-10-19T18:23:53.382Z,11.66
2022-10-19T18:26:22.894Z,11.54
2022-10-19T18:28:50.387Z,11.50
2022-10-19T18:31:19.518Z,11.42
2022-10-19T18:33:47.631Z,11.41
2022-10-19T18:36:14.168Z,11.37
2022-10-19T18:38:40.472Z,11.32
2022-10-19T18:41:11.494Z,11.32
2022-10-19T18:43:41.506Z,11.33
2022-10-19T18:46:09.118Z,11.33
2022-10-19T18:48:37.315Z,11.30
2022-10-19T18:51:05.770Z,11.16
2022-10-19T18:53:32.611Z,11.08
2022-10-19T18:56:04.930Z,10.99
2022-10-19T18:58:32.003Z,11.02
2022-10-19T19:01:11.827Z,11.02
2022-10-19T19:03:40.152Z,10.99
2022-10-19T19:06:08.970Z,10.97
2022-10-19T19:08:35.420Z,10.78
2022-10-19T19:11:18.404Z,10.80
2022-10-19T19:13:49.935Z,10.70
2022-10-19T19:16:16.657Z,10.63
2022-10-19T19:18:42.916Z,10.42
2022-10-19T19:21:23.456Z,10.36
2022-10-19T19:23:51.406Z,10.27
2022-10-19T19:26:18.067Z,10.17
2022-10-19T19:28:47.631Z,9.99
2022-10-19T19:31:19.147Z,9.91
2022-10-19T19:33:46.084Z,9.83
2022-10-19T19:36:14.481Z,9.68
2022-10-19T19:38:41.062Z,9.57
2022-10-19T19:41:09.372Z,9.45
2022-10-19T19:43:37.328Z,9.34
2022-10-19T19:46:08.865Z,9.09
2022-10-19T19:48:36.434Z,9.16
2022-10-19T19:51:02.700Z,9.16
2022-10-19T19:53:29.363Z,9.05
2022-10-19T19:55:55.619Z,9.06
2022-10-19T19:58:21.885Z,9.06
2022-10-19T20:00:48.400Z,9.01
2022-10-19T20:03:15.829Z,8.91
2022-10-19T20:05:42.169Z,8.78
2022-10-19T20:08:08.737Z,8.79
2022-10-19T20:10:39.823Z,8.75
2022-10-19T20:13:06.071Z,8.75
2022-10-19T20:15:32.401Z,8.67
2022-10-19T20:17:58.940Z,8.64
2022-10-19T20:20:25.179Z,8.48
2022-10-19T20:22:51.407Z,8.60
2022-10-19T20:25:17.906Z,8.58
2022-10-19T20:27:44.155Z,8.50
2022-10-19T20:30:11.086Z,8.41
2022-10-19T20:32:38.317Z,8.26
2022-10-19T20:35:05.338Z,8.12
2022-10-19T20:37:32.345Z,8.15
2022-10-19T20:39:58.991Z,7.99
2022-10-19T20:42:25.275Z,8.05
2022-10-19T20:44:51.490Z,8.09
2022-10-19T20:47:18.006Z,8.04
2022-10-19T20:49:44.244Z,8.02
2022-10-19T20:52:10.507Z,7.87
2022-10-19T20:54:37.171Z,7.94
2022-10-19T20:57:03.465Z,7.89
2022-10-19T20:59:31.430Z,7.92
2022-10-19T21:01:58.048Z,7.88
2022-10-19T21:04:25.598Z,8.04
2022-10-19T21:06:52.243Z,8.20
2022-10-19T21:09:22.735Z,8.41
2022-10-19T21:11:50.391Z,8.63
2022-10-19T21:14:18.024Z,8.79
2022-10-19T21:16:44.970Z,8.90
2022-10-19T21:19:14.661Z,9.05
2022-10-19T21:21:44.177Z,9.10
2022-10-19T21:24:18.547Z,9.02
2022-10-19T21:26:45.310Z,9.03
2022-10-19T21:29:12.953Z,9.08
2022-10-19T21:31:43.001Z,8.96
2022-10-19T21:34:14.523Z,8.82
2022-10-19T21:36:40.777Z,8.96
2022-10-19T21:39:07.033Z,8.85
2022-10-19T21:41:33.554Z,8.87
2022-10-19T21:44:00.316Z,8.93
2022-10-19T21:46:26.734Z,8.74
2022-10-19T21:48:54.595Z,8.71
2022-10-19T21:51:36.954Z,8.75
2022-10-19T21:54:05.148Z,8.67
2022-10-19T21:56:32.690Z,8.69
2022-10-19T21:58:59.115Z,8.67
2022-10-19T22:01:28.567Z,8.61
2022-10-19T22:03:59.727Z,8.59
2022-10-19T22:06:28.021Z,8.51
2022-10-19T22:08:55.327Z,8.48
2022-10-19T22:11:22.106Z,8.37
2022-10-19T22:13:48.404Z,8.33
2022-10-19T22:16:20.430Z,8.18
2022-10-19T22:18:47.880Z,7.99
2022-10-19T22:21:16.905Z,8.08
2022-10-19T22:23:44.819Z,8.18
2022-10-19T22:26:15.408Z,7.95
2022-10-19T22:28:42.117Z,8.02
2022-10-19T22:31:09.040Z,7.87
2022-10-19T22:33:35.629Z,7.82
2022-10-19T22:36:02.619Z,7.76
2022-10-19T22:38:29.612Z,7.64
2022-10-19T22:40:55.818Z,7.54
2022-10-19T22:43:22.047Z,7.46
2022-10-19T22:45:49.792Z,7.41
2022-10-19T22:48:19.437Z,7.45
2022-10-19T22:50:45.909Z,7.46
2022-10-19T22:53:12.791Z,7.40
2022-10-19T22:55:39.292Z,7.23
2022-10-19T22:58:06.742Z,7.26
2022-10-19T23:00:33.315Z,7.10
2022-10-19T23:02:59.577Z,7.11
2022-10-19T23:05:25.787Z,6.99
2022-10-19T23:07:52.333Z,7.02
2022-10-19T23:10:18.878Z,7.00
2022-10-19T23:12:49.089Z,6.94
2022-10-19T23:15:15.653Z,6.89
2022-10-19T23:17:41.891Z,6.83
2022-10-19T23:20:08.634Z,6.80
2022-10-19T23:22:35.155Z,6.79
2022-10-19T23:25:01.414Z,6.66
2022-10-19T23:27:27.625Z,6.69
2022-10-19T23:29:54.152Z,6.69
2022-10-19T23:32:20.373Z,6.64
2022-10-19T23:34:48.431Z,6.64
2022-10-19T23:37:15.252Z,6.64
2022-10-19T23:39:41.881Z,6.58
2022-10-19T23:42:08.148Z,6.58
2022-10-19T23:44:34.707Z,6.53
2022-10-19T23:47:00.972Z,6.53
2022-10-19T23:49:27.193Z,6.42
2022-10-19T23:51:53.984Z,6.44
2022-10-19T23:54:20.224Z,6.35
2022-10-19T23:56:46.480Z,6.24
2022-10-19T23:59:12.998Z,6.37
